Tremonton, UT (84337)

11:16 PM MDT on September 20, 2014 (GMT -0600)
Bothwell 1432 | Change Station
CLOSE
Current Station
Personal Weather Station
Location: Bothwell, UT
Elevation: 4468 ft
Nearby Weather Stations

Elev 4468 ft 41.72 °N, 112.23 °W | Updated 41 seconds ago

Clear
Clear
74.3 °F
Feels Like 77 °F
N
15.0
Wind Variable Wind from NNE
Gusts 15.0 mph

Today
High -- | Low -- °F
--% Chance of Precip.
Yesterday
High -- | Low -- °F
Precip. -- in
7:14 AM 7:29 PM
Waning Crescent, 8% visible
Pressure 30.08 in
Visibility 10.0 miles
Clouds Clear
Heat Index 77 °F
Dew Point 42 °F
Humidity 31%
Rainfall 0.00 in
Snow Depth 0 in , 0 in , 0 in
UV 0 out of 12
Pollen 5.30 out of 12
Ozone Good
PM2.5 Good
Flu Activity Not available.
METAR KBMC 210455Z AUTO 36003KT 10SM CLR 19/07 A3008 RMK AO1 T01860065

More Conditions Fewer Conditions

Pressure 30.08 in
Visibility 10.0 miles
Clouds Clear
Heat Index 77 °F
Dew Point 42 °F
Humidity 31%
Rainfall 0.00 in
Snow Depth 0 in , 0 in , 0 in
UV 0 out of 12
Pollen 5.30 out of 12
Ozone Good
PM2.5 Good
Flu Activity Not available.
METAR KBMC 210455Z AUTO 36003KT 10SM CLR 19/07 A3008 RMK AO1 T01860065

More Conditions Fewer Conditions

10-Day Weather Forecast

Almanac

Astronomy

Sep. 20, 2014 Rise Set
Actual Time 7:14 AM MDT 7:29 PM MDT
Civil Twilight 6:46 AM MDT 7:57 PM MDT
Nautical Twilight 6:14 AM MDT 8:29 PM MDT
Astronomical Twilight 5:40 AM MDT 9:03 PM MDT
Moon 3:54 AM MDT (9/20) 5:37 PM MDT (9/20)
Length of Visible Light 13h 10m
Length of Day
12h 15m
Tomorrow will be 2m 47s shorter.
Waning Crescent, 8% of the Moon is Illuminated
Sep 21
Waning Crescent
Sep 24
New
Oct 1
First Quarter
Oct 8
Full
Oct 15
Last Quarter

Yesterday's Extremes

State Highs State Lows

Community

WunderPhotos

Upload Photos

1,755,091 photos uploaded!

Nearby

Air Quality

  Air Quality AQ Index Pollutant
Yesterday Good
OZONE
Yesterday Good
PM2.5
Current Good
PM2.5
Current Good
OZONE

Snow Depth

Station Depth Elevation
Chepeta 0 in 10300 ft
Daniels-Strawberry 0 in 8000 ft
Gooseberry R.S. 0 in 7920 ft
Kimberly Mine 0 in 9300 ft
Long Flat 0 in 8000 ft

Earthquake Activity

City Distance Mag. Time & Date
No recent earthquake activity has been reported nearby.
Minimum magnitude displayed is 2.5.

Coastal Water Temperatures

Place Temperature
No Stations Reporting

Nearby Weather Stations